Terminal Aerodrome Forecast
Issued by NWS

Home | Current Version | Previous Version | Text Only | Print | Product List | Glossary On
Versions: 1 2 3 4 5 6 7 8 9 10 11 12 13 14 15 16 17 18 19 20 21 22 23 24 25
000
FTUS46 KSGX 100200 AAA
TAFSAN
TAF AMD
KSAN 100257Z 1003/1106 28006KT P6SM SCT015
     FM100400 VRB04KT P6SM OVC015
     FM101700 VRB04KT P6SM SCT015
     FM101900 29010KT P6SM SKC
     FM110300 VRB04KT P6SM OVC015=

USA.gov is the U.S. government's official web portal to all federal, state and local government web resources and services.